Time;durP1;ratioP1;P1;durP2;ratioP2;P2;SDS_P1;SDS_P2;PMS_P1;PMS_P2;Temp;Humidity;BMP_temperature;BMP_pressure;BME280_temperature;BME280_humidity;BME280_pressure;Samples;Min_cycle;Max_cycle;Signal;HPM_P1;HPM_P2
2021/01/26 00:00:32;;;;;;;26.58;14.93;;;2.20;99.90;;;;;;5061899;28;20119;-82
2021/01/26 00:02:58;;;;;;;29.67;14.18;;;2.10;99.90;;;;;;5063144;28;20037;-82
2021/01/26 00:05:25;;;;;;;22.50;14.00;;;2.10;99.90;;;;;;5034432;28;20042;-83
2021/01/26 00:07:51;;;;;;;29.13;15.23;;;2.10;99.90;;;;;;5050220;28;20040;-82
2021/01/26 00:10:18;;;;;;;24.13;15.10;;;2.10;99.90;;;;;;5064768;28;20040;-83
2021/01/26 00:12:44;;;;;;;22.40;15.02;;;2.10;99.90;;;;;;5064763;28;20068;-82
2021/01/26 00:15:11;;;;;;;23.20;14.50;;;2.00;99.90;;;;;;5047494;28;20552;-82
2021/01/26 00:17:38;;;;;;;26.70;13.75;;;2.00;99.90;;;;;;5044632;28;20475;-82
2021/01/26 00:20:08;;;;;;;26.20;14.32;;;2.00;99.90;;;;;;5045871;28;20045;-82
2021/01/26 00:22:34;;;;;;;22.73;14.65;;;2.00;99.90;;;;;;5062880;28;20056;-83
2021/01/26 00:25:01;;;;;;;23.40;13.55;;;2.00;99.90;;;;;;5045232;28;20098;-83
2021/01/26 00:27:27;;;;;;;22.27;12.98;;;2.00;99.90;;;;;;5063802;28;20049;-82
2021/01/26 00:29:54;;;;;;;24.48;12.63;;;1.90;99.90;;;;;;5062956;28;20057;-82
2021/01/26 00:32:21;;;;;;;19.85;13.80;;;1.90;99.90;;;;;;5074993;28;20048;-82
2021/01/26 00:34:47;;;;;;;28.30;13.98;;;1.90;99.90;;;;;;5059244;28;20056;-82
2021/01/26 00:37:14;;;;;;;20.27;13.00;;;1.80;99.90;;;;;;5050437;28;20060;-83
2021/01/26 00:39:40;;;;;;;17.75;12.38;;;1.80;99.90;;;;;;5051050;28;20106;-82
2021/01/26 00:42:07;;;;;;;21.75;13.57;;;1.80;99.90;;;;;;5064393;28;20118;-82
2021/01/26 00:44:33;;;;;;;18.27;12.60;;;1.80;99.90;;;;;;5033889;28;20040;-82
2021/01/26 00:46:59;;;;;;;26.52;12.27;;;1.80;99.90;;;;;;5057227;28;20114;-83
2021/01/26 00:49:26;;;;;;;16.45;11.32;;;1.80;99.90;;;;;;5047753;28;20645;-82
2021/01/26 00:51:53;;;;;;;24.92;12.30;;;1.80;99.90;;;;;;5065402;28;20053;-83
2021/01/26 00:54:19;;;;;;;17.13;11.20;;;1.80;99.90;;;;;;5049046;28;20307;-82
2021/01/26 00:56:45;;;;;;;14.18;10.27;;;1.80;99.90;;;;;;5050188;28;20520;-83
2021/01/26 00:59:12;;;;;;;18.92;10.60;;;1.80;99.90;;;;;;5063780;28;20048;-82
2021/01/26 01:01:38;;;;;;;16.95;10.15;;;1.80;99.90;;;;;;5050413;28;20044;-82
2021/01/26 01:04:05;;;;;;;13.63;10.82;;;1.90;99.90;;;;;;5062873;28;20484;-83
2021/01/26 01:06:31;;;;;;;11.82;9.95;;;1.80;99.90;;;;;;5068570;28;20106;-83
2021/01/26 01:08:57;;;;;;;13.60;9.82;;;1.90;99.90;;;;;;5065195;28;20423;-83
2021/01/26 01:11:24;;;;;;;13.40;9.35;;;1.90;99.90;;;;;;5067662;28;20060;-83
2021/01/26 01:13:50;;;;;;;12.52;8.65;;;1.90;99.90;;;;;;5068843;28;20498;-82
2021/01/26 01:16:18;;;;;;;12.20;9.10;;;1.90;99.90;;;;;;5063793;28;20037;-83
2021/01/26 01:18:44;;;;;;;15.02;9.40;;;2.00;99.90;;;;;;5049475;28;20056;-83
2021/01/26 01:21:11;;;;;;;10.85;8.48;;;2.00;99.90;;;;;;5062847;28;20123;-83
2021/01/26 01:23:37;;;;;;;10.82;8.98;;;2.00;99.90;;;;;;5067721;28;20049;-83
2021/01/26 01:26:04;;;;;;;10.45;8.27;;;2.10;99.90;;;;;;5083310;28;20041;-82
2021/01/26 01:28:30;;;;;;;10.75;7.70;;;2.10;99.90;;;;;;5052758;28;20375;-83
2021/01/26 01:30:57;;;;;;;11.70;8.15;;;2.10;99.90;;;;;;5070397;28;20057;-83
2021/01/26 01:33:24;;;;;;;10.32;7.47;;;2.10;99.90;;;;;;5047337;28;20505;-83
2021/01/26 01:35:51;;;;;;;12.60;7.55;;;2.20;99.90;;;;;;5069494;28;20078;-83
2021/01/26 01:38:18;;;;;;;13.80;8.00;;;2.20;99.90;;;;;;5065261;28;20056;-82
2021/01/26 01:40:45;;;;;;;11.88;7.22;;;2.20;99.90;;;;;;5071395;28;20052;-83
2021/01/26 01:43:11;;;;;;;9.48;7.18;;;2.20;99.90;;;;;;5044616;28;20254;-83
2021/01/26 01:45:37;;;;;;;10.65;7.03;;;2.20;99.90;;;;;;5051687;28;20044;-83
2021/01/26 01:48:19;;;;;;;8.85;6.38;;;2.20;99.90;;;;;;5044206;28;20064;-82
2021/01/26 01:51:07;;;;;;;11.55;6.63;;;2.20;99.90;;;;;;5018209;28;20077;-82
2021/01/26 01:53:40;;;;;;;8.55;6.15;;;2.30;99.90;;;;;;5037629;28;20072;-82
2021/01/26 01:56:13;;;;;;;9.32;6.75;;;2.30;99.90;;;;;;5034109;28;20105;-82
2021/01/26 01:58:47;;;;;;;11.43;7.88;;;2.30;99.90;;;;;;5030434;28;20471;-82
2021/01/26 02:01:16;;;;;;;10.63;7.15;;;2.30;99.90;;;;;;5002327;28;20148;-83
2021/01/26 02:03:51;;;;;;;11.82;6.80;;;2.30;99.90;;;;;;5028071;28;20049;-83
2021/01/26 02:06:20;;;;;;;9.68;7.05;;;2.30;99.90;;;;;;5036668;28;20056;-82
2021/01/26 02:09:02;;;;;;;10.73;6.72;;;2.30;99.90;;;;;;5029366;28;20439;-82
2021/01/26 02:11:29;;;;;;;11.15;7.18;;;2.30;99.90;;;;;;5026887;28;20056;-83
2021/01/26 02:13:55;;;;;;;12.27;7.28;;;2.30;99.90;;;;;;5025995;28;20107;-83
2021/01/26 02:16:40;;;;;;;14.10;7.47;;;2.30;99.90;;;;;;5024325;28;20046;-83
2021/01/26 02:19:32;;;;;;;15.05;8.02;;;2.30;99.90;;;;;;5039643;28;20050;-82
2021/01/26 02:22:35;;;;;;;12.15;7.70;;;2.30;99.90;;;;;;5021067;28;20065;-83
2021/01/26 02:25:29;;;;;;;11.27;6.95;;;2.30;99.90;;;;;;5045122;28;20493;-83
2021/01/26 02:28:24;;;;;;;9.98;5.97;;;2.30;99.90;;;;;;5014217;28;20045;-83
2021/01/26 02:31:12;;;;;;;8.93;6.07;;;2.30;99.90;;;;;;5035054;28;21537;-83
2021/01/26 02:34:16;;;;;;;9.25;6.07;;;2.30;99.90;;;;;;5048463;28;20057;-83
2021/01/26 02:37:01;;;;;;;11.88;5.80;;;2.30;99.90;;;;;;5037049;28;20050;-82
2021/01/26 02:39:36;;;;;;;8.57;6.15;;;2.30;99.90;;;;;;5042105;28;20111;-82
2021/01/26 02:42:17;;;;;;;11.60;6.88;;;2.30;99.90;;;;;;5029248;28;20052;-82
2021/01/26 02:45:21;;;;;;;8.50;6.38;;;2.30;99.90;;;;;;5041291;28;20483;-83
2021/01/26 02:48:26;;;;;;;9.55;6.45;;;2.30;99.90;;;;;;5030535;28;20045;-82
2021/01/26 02:51:15;;;;;;;11.68;5.93;;;2.30;99.90;;;;;;5039052;28;20112;-82
2021/01/26 02:54:20;;;;;;;10.32;6.50;;;2.40;99.90;;;;;;5016327;28;20053;-83
2021/01/26 02:56:54;;;;;;;9.10;5.80;;;2.40;99.90;;;;;;5036408;28;20058;-83
2021/01/26 02:59:32;;;;;;;9.25;5.75;;;2.40;99.90;;;;;;5033220;28;20041;-83
2021/01/26 03:02:26;;;;;;;7.20;5.07;;;2.40;99.90;;;;;;5032283;28;20045;-83
2021/01/26 03:05:02;;;;;;;8.18;4.93;;;2.50;99.90;;;;;;5043226;28;20629;-83
2021/01/26 03:07:33;;;;;;;8.40;4.57;;;2.50;99.90;;;;;;5042290;28;20049;-83
2021/01/26 03:10:07;;;;;;;8.60;4.50;;;2.50;99.90;;;;;;5036079;28;20046;-82
2021/01/26 03:12:37;;;;;;;8.20;4.60;;;2.60;99.90;;;;;;5014590;28;20100;-82
2021/01/26 03:15:15;;;;;;;10.90;4.43;;;2.60;99.90;;;;;;5064549;28;20053;-82
2021/01/26 03:17:44;;;;;;;9.52;4.85;;;2.60;99.90;;;;;;5032783;28;20442;-82
2021/01/26 03:20:35;;;;;;;8.77;4.13;;;2.70;99.90;;;;;;5025886;28;20065;-83
2021/01/26 03:23:06;;;;;;;8.77;4.30;;;2.70;99.90;;;;;;5025276;28;20045;-83
2021/01/26 03:25:38;;;;;;;5.82;4.20;;;2.70;99.90;;;;;;5042613;28;20459;-83
2021/01/26 03:28:07;;;;;;;6.38;3.80;;;2.80;99.90;;;;;;5027449;28;20052;-82
2021/01/26 03:30:39;;;;;;;5.95;4.38;;;2.80;99.90;;;;;;5007019;28;20471;-82
2021/01/26 03:33:17;;;;;;;6.82;3.95;;;2.80;99.90;;;;;;5015246;28;20114;-82
2021/01/26 03:35:45;;;;;;;8.38;4.97;;;2.90;99.90;;;;;;5019096;28;20426;-83
2021/01/26 03:38:17;;;;;;;6.05;3.65;;;2.90;99.90;;;;;;5042259;28;20456;-83
2021/01/26 03:40:50;;;;;;;3.78;3.20;;;2.90;99.90;;;;;;5047396;28;20481;-82
2021/01/26 03:43:16;;;;;;;;;;;3.00;99.90;;;;;;5042907;28;20071;-83
2021/01/26 03:45:43;;;;;;;6.88;3.47;;;3.00;99.90;;;;;;5025638;28;19921;-82
2021/01/26 03:48:38;;;;;;;11.73;3.50;;;3.00;99.90;;;;;;5027219;28;20045;-82
2021/01/26 03:51:15;;;;;;;5.97;3.33;;;3.10;99.90;;;;;;5019295;28;20054;-82
2021/01/26 03:53:53;;;;;;;7.95;4.20;;;3.10;99.90;;;;;;5026024;28;20041;-82
2021/01/26 03:56:20;;;;;;;9.20;4.00;;;3.20;99.90;;;;;;5026754;28;20057;-83
2021/01/26 03:59:14;;;;;;;7.85;3.45;;;3.30;99.90;;;;;;5014772;28;20053;-82
2021/01/26 04:01:59;;;;;;;5.93;3.00;;;3.30;99.90;;;;;;5017911;28;20108;-82
2021/01/26 04:05:12;;;;;;;8.60;3.40;;;3.40;99.90;;;;;;5019043;28;20063;-82
2021/01/26 04:07:43;;;;;;;6.50;3.17;;;3.50;99.90;;;;;;5015409;28;20057;-82
2021/01/26 04:10:38;;;;;;;5.07;2.97;;;3.50;99.90;;;;;;5010268;28;20053;-82
2021/01/26 04:13:12;;;;;;;6.97;3.65;;;3.60;99.90;;;;;;5020775;28;20123;-82
2021/01/26 04:15:58;;;;;;;10.32;4.40;;;3.60;99.90;;;;;;5007517;28;20121;-82
2021/01/26 04:18:29;;;;;;;8.35;3.38;;;3.70;99.90;;;;;;5015453;28;20487;-82
2021/01/26 04:20:57;;;;;;;8.57;4.40;;;3.70;99.90;;;;;;5013272;28;20053;-82
2021/01/26 04:23:26;;;;;;;10.23;4.35;;;3.70;99.90;;;;;;5023122;28;20042;-82
2021/01/26 04:25:54;;;;;;;7.85;3.33;;;3.70;99.90;;;;;;5025974;28;20053;-82
2021/01/26 04:28:42;;;;;;;11.90;4.10;;;3.70;99.90;;;;;;5023239;28;20073;-82
2021/01/26 04:31:11;;;;;;;5.43;3.47;;;3.80;99.90;;;;;;5023851;28;20049;-82
2021/01/26 04:33:39;;;;;;;5.95;3.53;;;3.80;99.90;;;;;;5024558;28;20052;-82
2021/01/26 04:36:06;;;;;;;8.40;3.15;;;3.80;99.90;;;;;;5022460;28;20049;-82
2021/01/26 04:38:33;;;;;;;7.25;2.90;;;3.90;99.90;;;;;;5006693;28;20065;-82
2021/01/26 04:41:07;;;;;;;4.20;2.30;;;3.90;99.90;;;;;;5027211;28;20107;-82
2021/01/26 04:43:53;;;;;;;7.65;2.55;;;3.90;99.90;;;;;;5033256;28;20439;-82
2021/01/26 04:46:27;;;;;;;6.28;2.22;;;4.00;99.90;;;;;;5025374;28;20041;-82
2021/01/26 04:49:25;;;;;;;6.85;2.25;;;4.00;99.90;;;;;;5007613;28;20049;-82
2021/01/26 04:51:57;;;;;;;8.15;2.90;;;4.10;99.90;;;;;;5036762;28;20900;-82
2021/01/26 04:54:30;;;;;;;4.82;2.22;;;4.10;99.90;;;;;;4995161;28;20053;-82
2021/01/26 04:57:04;;;;;;;7.22;2.20;;;4.20;99.90;;;;;;4999308;28;20042;-82
2021/01/26 05:00:12;;;;;;;6.88;2.20;;;4.20;99.90;;;;;;5021697;28;20507;-82
2021/01/26 05:03:03;;;;;;;3.55;1.67;;;4.30;99.90;;;;;;4957400;28;20050;-82
2021/01/26 05:05:34;;;;;;;4.50;1.95;;;4.30;99.90;;;;;;4970973;28;20047;-82
2021/01/26 05:08:11;;;;;;;3.22;1.65;;;4.30;99.90;;;;;;4954513;28;20047;-82
2021/01/26 05:10:49;;;;;;;4.68;1.88;;;4.30;99.90;;;;;;4985783;28;20112;-83
2021/01/26 05:13:23;;;;;;;3.92;1.60;;;4.40;99.90;;;;;;4978996;28;20056;-83
2021/01/26 05:15:59;;;;;;;5.97;1.60;;;4.40;99.90;;;;;;4972496;28;20042;-83
2021/01/26 05:19:12;;;;;;;5.60;1.98;;;4.50;99.90;;;;;;4986868;28;20109;-83
2021/01/26 05:21:59;;;;;;;7.80;1.80;;;4.50;99.90;;;;;;4967865;28;20061;-82
2021/01/26 05:25:03;;;;;;;4.50;1.73;;;4.50;99.90;;;;;;4953647;28;20054;-82
2021/01/26 05:27:30;;;;;;;6.10;1.70;;;4.60;99.90;;;;;;4969084;28;20054;-82
2021/01/26 05:29:58;;;;;;;7.13;1.95;;;4.60;99.90;;;;;;4971715;28;20065;-82
2021/01/26 05:32:25;;;;;;;6.10;1.70;;;4.60;99.90;;;;;;4957294;28;20110;-82
2021/01/26 05:34:54;;;;;;;4.45;1.58;;;4.70;99.90;;;;;;4971789;28;20051;-82
2021/01/26 05:37:21;;;;;;;3.25;1.95;;;4.70;99.90;;;;;;4968500;28;20214;-82
2021/01/26 05:39:55;;;;;;;5.28;1.65;;;4.80;99.90;;;;;;5018639;28;20430;-82
2021/01/26 05:42:24;;;;;;;6.55;1.83;;;4.80;99.90;;;;;;5039591;28;20049;-82
2021/01/26 05:44:55;;;;;;;4.28;1.60;;;4.90;99.90;;;;;;5026536;28;20045;-82
2021/01/26 05:47:34;;;;;;;5.10;1.60;;;4.90;99.90;;;;;;5028594;28;20618;-82
2021/01/26 05:50:04;;;;;;;3.33;1.52;;;5.00;99.90;;;;;;5032036;28;20044;-82
2021/01/26 05:52:40;;;;;;;2.90;1.10;;;5.00;99.90;;;;;;5055062;28;20445;-82
2021/01/26 05:55:23;;;;;;;5.55;1.20;;;5.10;99.90;;;;;;5041857;28;20045;-82
2021/01/26 05:57:50;;;;;;;3.88;1.02;;;5.20;99.90;;;;;;5046365;28;20048;-82
2021/01/26 06:00:28;;;;;;;4.95;1.42;;;5.20;99.90;;;;;;5041944;28;20052;-82
2021/01/26 06:03:18;;;;;;;3.28;1.90;;;5.30;99.90;;;;;;5056538;28;20036;-82
2021/01/26 06:06:06;;;;;;;4.38;1.60;;;5.30;99.90;;;;;;5054543;28;20049;-82
2021/01/26 06:08:48;;;;;;;3.50;1.20;;;5.40;99.90;;;;;;5044000;28;20099;-82
2021/01/26 06:11:18;;;;;;;5.38;1.33;;;5.40;99.90;;;;;;5056772;28;20056;-82
2021/01/26 06:13:45;;;;;;;5.00;1.50;;;5.50;99.90;;;;;;5063584;28;20053;-82
2021/01/26 06:16:13;;;;;;;5.93;1.10;;;5.50;99.90;;;;;;5046706;28;20458;-77
2021/01/26 06:18:58;;;;;;;5.88;1.92;;;5.50;99.90;;;;;;5049022;28;20460;-82
2021/01/26 06:21:26;;;;;;;8.45;2.00;;;5.60;99.90;;;;;;5057628;28;20070;-83
2021/01/26 06:23:53;;;;;;;2.90;1.10;;;5.60;99.90;;;;;;5041753;28;20464;-82
2021/01/26 06:26:19;;;;;;;5.63;1.60;;;5.70;99.90;;;;;;5066975;28;20044;-83
2021/01/26 06:29:12;;;;;;;4.97;1.83;;;5.70;99.90;;;;;;5066012;28;20051;-82
2021/01/26 06:31:38;;;;;;;9.38;1.73;;;5.70;99.90;;;;;;5049967;28;20045;-83
2021/01/26 06:34:40;;;;;;;7.03;1.98;;;5.80;99.90;;;;;;5045878;28;20048;-82
2021/01/26 06:37:44;;;;;;;8.18;1.55;;;5.80;99.90;;;;;;5054037;28;20044;-82
2021/01/26 06:40:35;;;;;;;5.25;0.98;;;5.90;99.90;;;;;;5065797;28;20098;-82
2021/01/26 06:43:23;;;;;;;4.35;1.30;;;5.90;99.90;;;;;;5066544;28;20427;-83
2021/01/26 06:45:55;;;;;;;4.78;1.35;;;6.00;99.90;;;;;;5047720;28;20564;-82
2021/01/26 06:48:51;;;;;;;3.30;1.38;;;6.00;99.90;;;;;;5049088;28;20098;-82
2021/01/26 06:51:26;;;;;;;4.32;1.30;;;6.00;99.90;;;;;;5048320;28;20452;-82
2021/01/26 06:54:03;;;;;;;6.70;1.25;;;6.10;99.90;;;;;;5033683;28;20045;-82
2021/01/26 06:56:51;;;;;;;6.43;1.15;;;6.10;99.90;;;;;;5036180;28;20038;-82
2021/01/26 06:59:57;;;;;;;3.72;1.10;;;6.10;99.90;;;;;;5045434;28;20058;-82
2021/01/26 07:02:37;;;;;;;3.28;1.10;;;6.20;99.90;;;;;;5052976;28;20062;-82
2021/01/26 07:05:32;;;;;;;5.20;1.42;;;6.20;99.90;;;;;;5057401;28;20148;-82
2021/01/26 07:08:07;;;;;;;4.03;1.00;;;6.30;99.90;;;;;;5025842;28;20402;-82
2021/01/26 07:11:10;;;;;;;5.32;1.63;;;6.30;99.90;;;;;;5046798;28;20083;-82
2021/01/26 07:13:49;;;;;;;7.53;1.05;;;6.30;99.90;;;;;;5066675;28;20047;-82
2021/01/26 07:16:40;;;;;;;;;;;6.40;99.90;;;;;;5061617;28;20174;-83
2021/01/26 07:19:13;;;;;;;2.70;0.80;;;6.40;99.90;;;;;;5059741;28;19920;-83
2021/01/26 07:22:13;;;;;;;3.92;0.98;;;6.50;99.90;;;;;;5049036;28;20040;-82
2021/01/26 07:24:47;;;;;;;5.45;1.00;;;6.50;99.90;;;;;;5061944;28;20414;-83
2021/01/26 07:27:37;;;;;;;3.53;1.42;;;6.60;99.90;;;;;;5043022;28;20372;-82
2021/01/26 07:30:40;;;;;;;1.80;0.85;;;6.60;99.90;;;;;;5056248;28;20044;-83
2021/01/26 07:33:28;;;;;;;8.43;1.42;;;6.70;99.90;;;;;;5057276;28;20110;-85
2021/01/26 07:36:07;;;;;;;6.28;1.17;;;6.70;99.90;;;;;;5059001;28;20045;-81
2021/01/26 07:38:43;;;;;;;5.63;1.10;;;6.70;99.90;;;;;;5039495;28;20138;-82
2021/01/26 07:41:28;;;;;;;8.60;1.20;;;6.80;99.90;;;;;;5047772;28;20036;-82
2021/01/26 07:44:15;;;;;;;4.25;1.10;;;6.80;99.90;;;;;;5073743;28;20052;-81
2021/01/26 07:46:49;;;;;;;7.55;1.20;;;6.90;99.90;;;;;;5057461;28;20040;-82
2021/01/26 07:49:43;;;;;;;4.32;1.00;;;6.80;99.90;;;;;;5063020;28;20055;-82
2021/01/26 07:52:10;;;;;;;4.13;1.00;;;6.90;99.90;;;;;;4963470;28;20051;-82
2021/01/26 07:55:04;;;;;;;5.68;1.10;;;6.90;99.90;;;;;;4968349;28;20047;-82
2021/01/26 07:57:48;;;;;;;8.27;1.23;;;7.00;99.90;;;;;;4981422;28;20054;-82
2021/01/26 08:00:20;;;;;;;4.45;1.02;;;7.00;99.90;;;;;;4977185;28;20097;-82
2021/01/26 08:02:54;;;;;;;5.53;1.35;;;7.00;99.90;;;;;;4985221;28;20091;-82
2021/01/26 08:05:38;;;;;;;3.92;1.00;;;7.10;99.90;;;;;;4959710;28;20054;-82
2021/01/26 08:08:07;;;;;;;5.70;1.02;;;7.10;99.90;;;;;;4968310;28;20050;-82
2021/01/26 08:10:34;;;;;;;;;;;7.10;99.90;;;;;;4971237;28;20109;-82
2021/01/26 08:13:02;;;;;;;5.47;1.65;;;7.10;99.90;;;;;;4965434;28;20024;-82
2021/01/26 08:15:35;;;;;;;5.22;0.93;;;7.10;99.90;;;;;;4963926;28;20050;-82
2021/01/26 08:18:40;;;;;;;4.38;1.40;;;7.20;99.90;;;;;;4967821;28;20112;-82
2021/01/26 08:21:34;;;;;;;6.20;1.17;;;7.20;99.90;;;;;;4866309;29;20469;-82
2021/01/26 08:24:22;;;;;;;3.35;0.93;;;7.30;99.90;;;;;;4908142;29;21197;-82
2021/01/26 08:26:50;;;;;;;7.13;1.15;;;7.30;99.90;;;;;;4887961;29;20198;-82
2021/01/26 08:29:44;;;;;;;5.97;1.10;;;7.30;99.90;;;;;;4893377;29;20078;-82
2021/01/26 08:32:23;;;;;;;6.85;1.02;;;7.30;99.90;;;;;;4951975;28;20215;-81
2021/01/26 08:35:06;;;;;;;4.45;1.20;;;7.40;99.90;;;;;;4964610;28;20062;-82
2021/01/26 08:37:53;;;;;;;4.90;1.05;;;7.40;99.90;;;;;;4950404;28;20067;-82
2021/01/26 08:40:41;;;;;;;9.48;1.40;;;7.40;99.90;;;;;;4970526;28;20105;-82
2021/01/26 08:43:08;;;;;;;6.50;1.75;;;7.50;99.90;;;;;;4937589;28;20043;-82
2021/01/26 08:45:36;;;;;;;6.13;1.30;;;7.50;99.90;;;;;;4938090;29;20106;-82
2021/01/26 08:48:09;;;;;;;10.67;1.97;;;7.50;99.90;;;;;;4967309;28;20065;-81
2021/01/26 08:50:43;;;;;;;3.65;1.00;;;7.50;99.90;;;;;;4942816;28;20426;-82
2021/01/26 08:53:27;;;;;;;4.63;1.20;;;7.50;99.90;;;;;;5064412;28;20101;-81
2021/01/26 08:56:03;;;;;;;14.20;1.63;;;7.60;99.90;;;;;;5077089;28;20033;-81
2021/01/26 08:58:45;;;;;;;6.07;1.30;;;7.60;99.90;;;;;;5052512;28;20040;-82
2021/01/26 09:01:23;;;;;;;4.63;1.20;;;7.60;99.90;;;;;;5053051;28;20106;-82
2021/01/26 09:03:55;;;;;;;7.97;1.50;;;7.70;99.90;;;;;;5056140;28;20079;-82
2021/01/26 09:06:46;;;;;;;5.68;1.27;;;7.70;99.90;;;;;;5064821;28;20052;-81
2021/01/26 09:09:21;;;;;;;9.15;1.80;;;7.70;99.90;;;;;;5041464;28;20049;-82
2021/01/26 09:11:54;;;;;;;7.30;1.90;;;7.70;99.90;;;;;;5059874;28;20049;-81
2021/01/26 09:14:36;;;;;;;13.32;2.40;;;7.70;99.90;;;;;;5063729;28;20099;-82
2021/01/26 09:17:05;;;;;;;6.50;1.20;;;7.80;99.90;;;;;;5067460;28;20079;-82
2021/01/26 09:19:36;;;;;;;4.30;1.38;;;7.70;99.90;;;;;;5045247;28;20056;-82
2021/01/26 09:22:18;;;;;;;8.25;1.40;;;7.80;99.90;;;;;;5063958;28;20056;-82
2021/01/26 09:24:46;;;;;;;12.98;2.45;;;7.80;99.90;;;;;;5064776;28;20048;-82
2021/01/26 09:27:22;;;;;;;7.43;1.38;;;7.80;99.90;;;;;;5063594;28;20073;-82
2021/01/26 09:30:10;;;;;;;6.93;1.20;;;7.90;99.90;;;;;;5066122;28;20056;-82
2021/01/26 09:32:40;;;;;;;7.33;1.60;;;7.90;99.90;;;;;;5065418;28;20036;-82
2021/01/26 09:35:32;;;;;;;9.15;1.20;;;7.90;99.90;;;;;;5050343;28;20057;-82
2021/01/26 09:38:07;;;;;;;5.35;1.70;;;7.90;99.90;;;;;;5052706;28;20071;-82
2021/01/26 09:40:35;;;;;;;5.45;1.27;;;8.00;99.90;;;;;;5074901;28;20470;-82
2021/01/26 09:43:20;;;;;;;11.23;2.17;;;8.00;99.90;;;;;;5051898;28;20117;-83
2021/01/26 09:46:07;;;;;;;7.00;1.40;;;8.10;99.90;;;;;;5048933;28;20453;-82
2021/01/26 09:48:34;;;;;;;10.20;1.33;;;8.10;99.90;;;;;;5065625;28;20053;-82
2021/01/26 09:51:14;;;;;;;7.40;1.63;;;8.10;99.90;;;;;;5030729;28;20045;-82
2021/01/26 09:53:42;;;;;;;10.27;1.48;;;8.20;99.90;;;;;;5046430;28;20053;-81
2021/01/26 09:56:10;;;;;;;13.70;1.90;;;8.20;99.90;;;;;;5028228;28;20052;-82
2021/01/26 09:58:37;;;;;;;10.43;1.80;;;8.20;99.90;;;;;;5027258;28;20042;-82
2021/01/26 10:01:04;;;;;;;6.95;1.58;;;8.20;99.90;;;;;;5024797;28;20080;-82
2021/01/26 10:03:32;;;;;;;8.95;1.50;;;8.30;99.90;;;;;;5017734;28;20050;-82
2021/01/26 10:06:01;;;;;;;12.23;1.58;;;8.30;99.90;;;;;;5037644;28;20046;-82
2021/01/26 10:08:33;;;;;;;4.25;1.27;;;8.30;99.90;;;;;;5047710;28;20040;-82
2021/01/26 10:11:12;;;;;;;9.75;1.67;;;8.40;99.90;;;;;;5027719;28;20060;-82
2021/01/26 10:13:40;;;;;;;11.68;1.95;;;8.40;99.90;;;;;;5031662;28;20045;-82
2021/01/26 10:16:27;;;;;;;11.32;1.88;;;8.40;99.90;;;;;;5021787;28;20095;-82
2021/01/26 10:18:54;;;;;;;9.48;1.40;;;8.40;99.90;;;;;;5048206;28;20414;-81
2021/01/26 10:21:30;;;;;;;11.82;1.90;;;8.40;99.90;;;;;;5047551;28;20052;-82
2021/01/26 10:24:27;;;;;;;10.48;1.95;;;8.40;99.90;;;;;;5059373;28;20049;-82
2021/01/26 10:27:13;;;;;;;12.38;1.98;;;8.40;99.90;;;;;;5040379;28;20481;-82
2021/01/26 10:29:41;;;;;;;10.23;1.52;;;8.40;99.90;;;;;;5052065;28;20118;-82
2021/01/26 10:32:10;;;;;;;14.73;2.20;;;8.30;99.90;;;;;;5065117;28;20406;-82
2021/01/26 10:34:49;;;;;;;12.32;1.52;;;8.30;99.90;;;;;;5058383;28;20106;-82
2021/01/26 10:37:21;;;;;;;13.30;2.05;;;8.30;99.90;;;;;;5033026;28;20049;-82
2021/01/26 10:40:18;;;;;;;14.25;2.45;;;8.30;99.90;;;;;;5062271;28;20395;-82
2021/01/26 10:43:11;;;;;;;13.98;1.60;;;8.30;99.90;;;;;;5032635;28;20103;-82
2021/01/26 10:45:52;;;;;;;14.10;2.25;;;8.30;99.90;;;;;;5030419;28;20048;-83
2021/01/26 10:48:42;;;;;;;17.55;2.55;;;8.30;99.90;;;;;;5025477;28;20059;-82
2021/01/26 10:51:30;;;;;;;14.13;4.82;;;8.30;99.90;;;;;;5033086;28;20049;-82
2021/01/26 10:54:00;;;;;;;9.98;2.47;;;8.30;99.90;;;;;;5038145;28;20337;-82
2021/01/26 10:56:27;;;;;;;13.88;3.05;;;8.30;99.90;;;;;;5024190;28;20060;-81
2021/01/26 10:58:54;;;;;;;10.75;2.63;;;8.20;99.90;;;;;;5022915;28;20468;-82
2021/01/26 11:01:22;;;;;;;8.00;1.88;;;8.30;99.90;;;;;;5021223;28;20045;-82
2021/01/26 11:03:50;;;;;;;17.63;3.08;;;8.30;99.90;;;;;;5024323;28;20597;-82
2021/01/26 11:06:19;;;;;;;15.48;2.17;;;8.30;99.90;;;;;;5033609;28;20059;-84
2021/01/26 11:08:47;;;;;;;13.02;2.30;;;8.40;99.90;;;;;;5035277;28;20037;-82
2021/01/26 11:11:15;;;;;;;14.27;2.55;;;8.40;99.90;;;;;;5016602;28;20391;-82
2021/01/26 11:13:42;;;;;;;14.93;2.45;;;8.40;99.90;;;;;;5014901;28;20045;-82
2021/01/26 11:16:08;;;;;;;14.13;2.20;;;8.40;99.90;;;;;;5017445;28;20057;-81
2021/01/26 11:18:35;;;;;;;16.67;3.13;;;8.40;99.90;;;;;;5030293;28;20475;-82
2021/01/26 11:21:03;;;;;;;11.35;2.53;;;8.40;99.90;;;;;;5026059;28;20041;-82
2021/01/26 11:23:29;;;;;;;13.25;2.63;;;8.50;99.90;;;;;;5038838;28;20054;-83
2021/01/26 11:25:57;;;;;;;15.02;3.58;;;8.50;99.90;;;;;;5031509;28;20545;-82
2021/01/26 11:28:23;;;;;;;16.45;3.17;;;8.50;99.90;;;;;;5028750;28;20044;-82
2021/01/26 11:30:50;;;;;;;12.00;2.75;;;8.60;99.90;;;;;;5053677;28;20049;-82
2021/01/26 11:33:16;;;;;;;13.43;2.30;;;8.60;99.90;;;;;;5045039;28;20091;-82
2021/01/26 11:35:43;;;;;;;13.00;2.58;;;8.60;99.90;;;;;;5045755;28;20064;-82
2021/01/26 11:38:09;;;;;;;15.93;3.30;;;8.60;99.90;;;;;;5051785;28;20053;-82
2021/01/26 11:40:35;;;;;;;13.82;2.85;;;8.60;99.90;;;;;;5029157;28;20082;-82
2021/01/26 11:43:02;;;;;;;13.77;2.80;;;8.70;99.90;;;;;;5030441;28;20053;-82
2021/01/26 11:45:31;;;;;;;12.02;2.92;;;8.70;99.90;;;;;;5043846;28;20385;-82
2021/01/26 11:47:59;;;;;;;10.77;4.30;;;8.70;99.90;;;;;;5023628;28;20057;-82
2021/01/26 11:50:27;;;;;;;13.10;3.72;;;8.80;99.90;;;;;;5030086;28;20126;-82
2021/01/26 11:52:54;;;;;;;13.55;4.32;;;8.80;99.90;;;;;;5036734;28;20053;-82
2021/01/26 11:55:24;;;;;;;17.52;4.00;;;8.80;99.90;;;;;;5032407;28;20068;-82
2021/01/26 11:57:51;;;;;;;9.27;2.90;;;8.80;99.90;;;;;;5040632;28;20044;-82
2021/01/26 12:00:25;;;;;;;11.68;2.55;;;8.80;99.90;;;;;;5041161;28;20098;-82
2021/01/26 12:02:51;;;;;;;12.13;2.70;;;8.80;99.90;;;;;;5042469;28;20040;-82
2021/01/26 12:05:20;;;;;;;14.98;2.50;;;8.80;99.90;;;;;;5023957;28;20415;-82
2021/01/26 12:07:47;;;;;;;11.77;2.55;;;8.80;99.90;;;;;;5060957;28;20041;-82
2021/01/26 12:10:15;;;;;;;12.57;2.78;;;8.80;99.90;;;;;;5040466;28;20090;-82
2021/01/26 12:12:41;;;;;;;14.35;2.55;;;8.80;99.90;;;;;;5055355;28;20045;-82
2021/01/26 12:15:13;;;;;;;11.88;2.75;;;8.90;99.90;;;;;;5026760;28;20131;-82
2021/01/26 12:17:40;;;;;;;9.77;1.95;;;8.90;99.90;;;;;;5042674;28;20115;-81
2021/01/26 12:20:07;;;;;;;8.55;2.88;;;8.90;99.90;;;;;;5041456;28;20040;-82
2021/01/26 12:22:33;;;;;;;9.18;2.92;;;8.90;99.90;;;;;;5057477;28;20053;-82
2021/01/26 12:25:00;;;;;;;8.65;2.45;;;8.90;99.90;;;;;;5038677;28;20099;-82
2021/01/26 12:27:26;;;;;;;9.80;2.17;;;8.90;99.90;;;;;;5049204;28;20048;-82
2021/01/26 12:29:53;;;;;;;7.95;2.40;;;8.90;99.90;;;;;;5037181;28;20053;-82
2021/01/26 12:32:19;;;;;;;8.55;2.22;;;9.00;99.90;;;;;;5048641;28;20533;-82
2021/01/26 12:34:46;;;;;;;10.95;2.30;;;9.00;99.90;;;;;;5040490;28;20453;-82
2021/01/26 12:37:12;;;;;;;11.57;2.88;;;9.00;99.90;;;;;;5040493;28;20056;-82
2021/01/26 12:39:39;;;;;;;10.38;2.50;;;9.00;99.90;;;;;;5040108;28;20052;-82
2021/01/26 12:42:05;;;;;;;14.85;3.72;;;9.00;99.90;;;;;;5049126;28;20064;-82
2021/01/26 12:44:31;;;;;;;9.80;2.10;;;9.00;99.90;;;;;;5028452;28;20110;-82
2021/01/26 12:46:58;;;;;;;11.85;2.40;;;9.10;99.90;;;;;;5042111;28;20127;-81
2021/01/26 12:49:25;;;;;;;15.07;2.85;;;9.10;99.90;;;;;;5036089;28;20049;-82
2021/01/26 12:51:51;;;;;;;11.50;2.38;;;9.10;99.90;;;;;;5015166;28;20053;-82
2021/01/26 12:54:19;;;;;;;10.43;2.25;;;9.20;99.90;;;;;;5022157;28;20556;-82
2021/01/26 12:56:46;;;;;;;14.77;2.88;;;9.20;99.90;;;;;;5012260;28;20379;-82
2021/01/26 12:59:14;;;;;;;14.60;2.10;;;9.20;99.90;;;;;;5014176;28;20069;-82
2021/01/26 13:01:41;;;;;;;11.45;2.92;;;9.20;99.90;;;;;;5034779;28;20045;-81
2021/01/26 13:04:07;;;;;;;6.50;2.20;;;9.30;99.90;;;;;;5022030;28;20472;-82
2021/01/26 13:06:34;;;;;;;12.57;2.67;;;9.30;99.90;;;;;;5002091;28;20112;-82
2021/01/26 13:09:00;;;;;;;11.55;3.13;;;9.30;99.90;;;;;;5016879;28;20041;-82
2021/01/26 13:11:27;;;;;;;9.73;2.40;;;9.40;99.90;;;;;;5029898;28;20061;-81
2021/01/26 13:13:54;;;;;;;11.82;2.35;;;9.40;99.90;;;;;;5044120;28;20103;-82
2021/01/26 13:16:20;;;;;;;8.80;2.30;;;9.40;99.90;;;;;;5037362;28;20128;-82
2021/01/26 13:18:47;;;;;;;9.75;2.60;;;9.50;99.90;;;;;;5042200;28;20467;-82
2021/01/26 13:21:14;;;;;;;12.43;2.88;;;9.50;99.90;;;;;;5038405;28;20037;-82
2021/01/26 13:23:40;;;;;;;11.07;2.95;;;9.60;99.90;;;;;;5024024;28;20058;-81
2021/01/26 13:26:07;;;;;;;9.30;2.05;;;9.60;99.90;;;;;;5025335;28;20164;-82
2021/01/26 13:28:33;;;;;;;8.93;2.15;;;9.60;99.90;;;;;;5037803;28;20100;-82
2021/01/26 13:31:00;;;;;;;11.27;2.60;;;9.70;99.90;;;;;;5040706;28;20147;-82
2021/01/26 13:33:27;;;;;;;7.78;2.00;;;9.70;99.90;;;;;;5019943;28;20430;-82